sensor_id;sensor_type;location;lat;lon;timestamp;pressure;altitude;pressure_sealevel;temperature;humidity
3102;BME280;1561;42.666;23.392;2022-12-18T00:02:34;58586.63;;;-138.18;100.00
3102;BME280;1561;42.666;23.392;2022-12-18T00:06:02;58586.63;;;-138.18;100.00
3102;BME280;1561;42.666;23.392;2022-12-18T00:09:28;58586.63;;;-138.18;100.00
3102;BME280;1561;42.666;23.392;2022-12-18T00:12:57;58586.63;;;-138.18;100.00
3102;BME280;1561;42.666;23.392;2022-12-18T00:16:24;58586.63;;;-138.18;100.00
3102;BME280;1561;42.666;23.392;2022-12-18T00:19:53;58586.63;;;-138.18;100.00
3102;BME280;1561;42.666;23.392;2022-12-18T00:23:22;58586.63;;;-138.18;100.00
3102;BME280;1561;42.666;23.392;2022-12-18T00:26:48;58586.63;;;-138.18;100.00
3102;BME280;1561;42.666;23.392;2022-12-18T00:30:17;58586.63;;;-138.18;100.00
3102;BME280;1561;42.666;23.392;2022-12-18T00:33:48;58586.63;;;-138.18;100.00
3102;BME280;1561;42.666;23.392;2022-12-18T00:37:14;58586.63;;;-138.18;100.00
3102;BME280;1561;42.666;23.392;2022-12-18T00:40:42;58586.63;;;-138.18;100.00
3102;BME280;1561;42.666;23.392;2022-12-18T00:44:07;58586.63;;;-138.18;100.00
3102;BME280;1561;42.666;23.392;2022-12-18T00:47:37;58586.63;;;-138.18;100.00
3102;BME280;1561;42.666;23.392;2022-12-18T00:51:04;58586.63;;;-138.18;100.00
3102;BME280;1561;42.666;23.392;2022-12-18T00:53:34;95975.75;;;6.67;100.00
3102;BME280;1561;42.666;23.392;2022-12-18T00:56:00;95976.31;;;6.57;100.00
3102;BME280;1561;42.666;23.392;2022-12-18T00:58:28;95993.81;;;6.46;100.00
3102;BME280;1561;42.666;23.392;2022-12-18T01:00:57;95997.91;;;6.48;100.00
3102;BME280;1561;42.666;23.392;2022-12-18T01:03:26;95974.69;;;6.40;100.00
3102;BME280;1561;42.666;23.392;2022-12-18T01:05:55;95996.59;;;6.41;100.00
3102;BME280;1561;42.666;23.392;2022-12-18T01:08:22;95997.72;;;6.36;100.00
3102;BME280;1561;42.666;23.392;2022-12-18T01:10:51;95988.25;;;6.39;100.00
3102;BME280;1561;42.666;23.392;2022-12-18T01:13:18;96002.41;;;6.43;100.00
3102;BME280;1561;42.666;23.392;2022-12-18T01:15:49;96008.94;;;6.32;100.00
3102;BME280;1561;42.666;23.392;2022-12-18T01:18:16;96012.88;;;6.37;100.00
3102;BME280;1561;42.666;23.392;2022-12-18T01:20:59;96013.38;;;6.28;100.00
3102;BME280;1561;42.666;23.392;2022-12-18T01:23:34;95997.72;;;6.20;100.00
3102;BME280;1561;42.666;23.392;2022-12-18T01:26:06;95995.28;;;6.02;100.00
3102;BME280;1561;42.666;23.392;2022-12-18T01:28:36;96022.16;;;6.21;100.00
3102;BME280;1561;42.666;23.392;2022-12-18T01:31:14;96015.13;;;6.26;100.00
3102;BME280;1561;42.666;23.392;2022-12-18T01:33:48;96012.03;;;6.21;100.00
3102;BME280;1561;42.666;23.392;2022-12-18T01:36:26;96025.75;;;6.17;100.00
3102;BME280;1561;42.666;23.392;2022-12-18T01:38:54;96014.44;;;6.07;100.00
3102;BME280;1561;42.666;23.392;2022-12-18T01:41:24;96027.00;;;5.93;100.00
3102;BME280;1561;42.666;23.392;2022-12-18T01:43:53;96019.47;;;5.92;100.00
3102;BME280;1561;42.666;23.392;2022-12-18T01:46:23;96028.88;;;5.90;100.00
3102;BME280;1561;42.666;23.392;2022-12-18T01:48:55;96021.41;;;5.87;100.00
3102;BME280;1561;42.666;23.392;2022-12-18T01:51:29;96029.66;;;5.73;100.00
3102;BME280;1561;42.666;23.392;2022-12-18T01:53:57;95952.59;;;5.26;100.00
3102;BME280;1561;42.666;23.392;2022-12-18T01:56:25;96030.13;;;5.81;100.00
3102;BME280;1561;42.666;23.392;2022-12-18T01:58:58;96028.59;;;5.77;100.00
3102;BME280;1561;42.666;23.392;2022-12-18T02:01:27;96036.59;;;5.70;100.00
3102;BME280;1561;42.666;23.392;2022-12-18T02:04:21;96047.13;;;5.79;100.00
3102;BME280;1561;42.666;23.392;2022-12-18T02:06:51;96038.59;;;5.63;100.00
3102;BME280;1561;42.666;23.392;2022-12-18T02:09:26;96035.22;;;5.63;100.00
3102;BME280;1561;42.666;23.392;2022-12-18T02:12:02;96046.34;;;5.60;100.00
3102;BME280;1561;42.666;23.392;2022-12-18T02:14:36;96039.50;;;5.62;100.00
3102;BME280;1561;42.666;23.392;2022-12-18T02:17:06;96061.34;;;5.65;100.00
3102;BME280;1561;42.666;23.392;2022-12-18T02:19:46;96061.09;;;5.69;100.00
3102;BME280;1561;42.666;23.392;2022-12-18T02:22:26;96070.28;;;5.55;100.00
3102;BME280;1561;42.666;23.392;2022-12-18T02:25:03;96065.06;;;5.58;100.00
3102;BME280;1561;42.666;23.392;2022-12-18T02:27:36;96075.72;;;5.64;100.00
3102;BME280;1561;42.666;23.392;2022-12-18T02:30:05;96076.84;;;5.59;100.00
3102;BME280;1561;42.666;23.392;2022-12-18T02:32:36;96067.75;;;5.55;100.00
3102;BME280;1561;42.666;23.392;2022-12-18T02:35:10;96064.41;;;5.36;100.00
3102;BME280;1561;42.666;23.392;2022-12-18T02:37:40;96078.81;;;5.35;100.00
3102;BME280;1561;42.666;23.392;2022-12-18T02:40:12;96072.19;;;5.33;100.00
3102;BME280;1561;42.666;23.392;2022-12-18T02:42:42;96085.88;;;5.29;100.00
3102;BME280;1561;42.666;23.392;2022-12-18T02:45:10;96037.72;;;5.12;100.00
3102;BME280;1561;42.666;23.392;2022-12-18T02:47:40;96076.56;;;5.29;100.00
3102;BME280;1561;42.666;23.392;2022-12-18T02:50:14;96078.84;;;5.17;100.00
3102;BME280;1561;42.666;23.392;2022-12-18T02:52:52;96076.44;;;5.14;100.00
3102;BME280;1561;42.666;23.392;2022-12-18T02:55:37;96087.16;;;5.19;100.00
3102;BME280;1561;42.666;23.392;2022-12-18T02:58:15;96092.88;;;5.05;100.00
3102;BME280;1561;42.666;23.392;2022-12-18T03:00:51;96093.25;;;4.98;100.00
3102;BME280;1561;42.666;23.392;2022-12-18T03:03:24;96077.28;;;4.96;100.00
3102;BME280;1561;42.666;23.392;2022-12-18T03:06:01;96100.06;;;4.96;100.00
3102;BME280;1561;42.666;23.392;2022-12-18T03:08:36;96088.97;;;4.98;100.00
3102;BME280;1561;42.666;23.392;2022-12-18T03:11:06;96099.81;;;5.02;100.00
3102;BME280;1561;42.666;23.392;2022-12-18T03:13:39;96114.44;;;4.95;100.00
3102;BME280;1561;42.666;23.392;2022-12-18T03:16:17;96116.22;;;5.12;100.00
3102;BME280;1561;42.666;23.392;2022-12-18T03:18:51;96106.50;;;5.21;100.00
3102;BME280;1561;42.666;23.392;2022-12-18T03:21:26;96117.78;;;5.33;100.00
3102;BME280;1561;42.666;23.392;2022-12-18T03:23:56;95995.56;;;4.57;100.00
3102;BME280;1561;42.666;23.392;2022-12-18T03:26:27;96019.22;;;4.74;100.00
3102;BME280;1561;42.666;23.392;2022-12-18T03:28:59;96114.72;;;5.26;100.00
3102;BME280;1561;42.666;23.392;2022-12-18T03:31:29;96119.56;;;5.31;100.00
3102;BME280;1561;42.666;23.392;2022-12-18T03:33:59;96112.44;;;5.20;100.00
3102;BME280;1561;42.666;23.392;2022-12-18T03:36:26;96115.91;;;5.36;100.00
3102;BME280;1561;42.666;23.392;2022-12-18T03:42:42;96128.75;;;5.15;100.00
3102;BME280;1561;42.666;23.392;2022-12-18T03:45:19;96127.44;;;5.06;100.00
3102;BME280;1561;42.666;23.392;2022-12-18T03:48:10;96131.81;;;5.03;100.00
3102;BME280;1561;42.666;23.392;2022-12-18T03:54:04;96159.69;;;5.03;100.00
3102;BME280;1561;42.666;23.392;2022-12-18T03:56:35;96145.78;;;4.93;100.00
3102;BME280;1561;42.666;23.392;2022-12-18T03:59:05;96158.72;;;5.05;100.00
3102;BME280;1561;42.666;23.392;2022-12-18T04:01:40;96047.28;;;4.31;100.00
3102;BME280;1561;42.666;23.392;2022-12-18T04:04:11;96169.69;;;5.06;100.00
3102;BME280;1561;42.666;23.392;2022-12-18T04:06:40;96169.34;;;5.13;100.00
3102;BME280;1561;42.666;23.392;2022-12-18T04:09:10;96077.28;;;4.59;100.00
3102;BME280;1561;42.666;23.392;2022-12-18T04:11:39;96160.63;;;5.19;100.00
3102;BME280;1561;42.666;23.392;2022-12-18T04:14:06;96164.47;;;5.09;100.00
3102;BME280;1561;42.666;23.392;2022-12-18T04:16:33;96164.53;;;5.07;100.00
3102;BME280;1561;42.666;23.392;2022-12-18T04:19:03;96180.53;;;5.08;100.00
3102;BME280;1561;42.666;23.392;2022-12-18T04:21:30;96187.66;;;5.00;100.00
3102;BME280;1561;42.666;23.392;2022-12-18T04:23:58;96189.78;;;4.90;100.00
3102;BME280;1561;42.666;23.392;2022-12-18T04:26:26;96164.72;;;4.84;100.00
3102;BME280;1561;42.666;23.392;2022-12-18T04:28:53;96175.06;;;4.98;100.00
3102;BME280;1561;42.666;23.392;2022-12-18T04:31:22;96186.41;;;4.90;100.00
3102;BME280;1561;42.666;23.392;2022-12-18T04:33:57;96190.59;;;4.91;100.00
3102;BME280;1561;42.666;23.392;2022-12-18T04:36:26;96197.84;;;4.98;100.00
3102;BME280;1561;42.666;23.392;2022-12-18T04:38:53;96073.19;;;4.18;100.00
3102;BME280;1561;42.666;23.392;2022-12-18T04:41:21;96207.78;;;5.03;100.00
3102;BME280;1561;42.666;23.392;2022-12-18T04:43:48;96201.81;;;5.04;100.00
3102;BME280;1561;42.666;23.392;2022-12-18T04:46:16;96193.66;;;4.97;100.00
3102;BME280;1561;42.666;23.392;2022-12-18T04:48:45;96215.00;;;4.92;100.00
3102;BME280;1561;42.666;23.392;2022-12-18T04:51:21;96211.22;;;5.02;100.00
3102;BME280;1561;42.666;23.392;2022-12-18T04:53:55;96128.59;;;4.42;100.00
3102;BME280;1561;42.666;23.392;2022-12-18T04:56:23;96234.56;;;4.88;100.00
3102;BME280;1561;42.666;23.392;2022-12-18T04:58:51;96226.53;;;4.99;100.00
3102;BME280;1561;42.666;23.392;2022-12-18T05:01:20;96241.16;;;4.92;100.00
3102;BME280;1561;42.666;23.392;2022-12-18T05:03:47;96229.63;;;4.85;100.00
3102;BME280;1561;42.666;23.392;2022-12-18T05:06:15;96227.47;;;4.76;100.00
3102;BME280;1561;42.666;23.392;2022-12-18T05:08:43;96217.50;;;4.73;100.00
3102;BME280;1561;42.666;23.392;2022-12-18T05:11:14;96229.34;;;4.73;100.00
3102;BME280;1561;42.666;23.392;2022-12-18T05:14:01;96241.25;;;4.71;100.00
3102;BME280;1561;42.666;23.392;2022-12-18T05:16:49;96246.53;;;4.85;100.00
3102;BME280;1561;42.666;23.392;2022-12-18T05:19:20;96260.97;;;4.63;100.00
3102;BME280;1561;42.666;23.392;2022-12-18T05:21:48;96254.84;;;4.68;100.00
3102;BME280;1561;42.666;23.392;2022-12-18T05:24:17;96245.28;;;4.55;100.00
3102;BME280;1561;42.666;23.392;2022-12-18T05:26:45;96166.53;;;4.02;100.00
3102;BME280;1561;42.666;23.392;2022-12-18T05:29:13;96273.22;;;4.52;100.00
3102;BME280;1561;42.666;23.392;2022-12-18T05:31:42;96257.41;;;4.47;100.00
3102;BME280;1561;42.666;23.392;2022-12-18T05:34:10;96268.31;;;4.49;100.00
3102;BME280;1561;42.666;23.392;2022-12-18T05:36:37;96269.50;;;4.60;100.00
3102;BME280;1561;42.666;23.392;2022-12-18T05:39:13;96270.84;;;4.69;100.00
3102;BME280;1561;42.666;23.392;2022-12-18T05:41:41;96255.50;;;4.52;100.00
3102;BME280;1561;42.666;23.392;2022-12-18T05:44:10;96241.66;;;4.40;100.00
3102;BME280;1561;42.666;23.392;2022-12-18T05:46:38;96280.13;;;4.48;100.00
3102;BME280;1561;42.666;23.392;2022-12-18T05:49:10;96255.44;;;4.33;100.00
3102;BME280;1561;42.666;23.392;2022-12-18T05:51:37;96289.28;;;4.51;100.00
3102;BME280;1561;42.666;23.392;2022-12-18T05:54:07;96266.78;;;4.45;100.00
3102;BME280;1561;42.666;23.392;2022-12-18T05:56:34;96290.56;;;4.41;100.00
3102;BME280;1561;42.666;23.392;2022-12-18T05:59:03;96203.44;;;3.85;100.00
3102;BME280;1561;42.666;23.392;2022-12-18T06:01:32;96308.31;;;4.39;100.00
3102;BME280;1561;42.666;23.392;2022-12-18T06:04:00;96298.44;;;4.33;100.00
3102;BME280;1561;42.666;23.392;2022-12-18T06:06:28;96307.38;;;4.42;100.00
3102;BME280;1561;42.666;23.392;2022-12-18T06:08:56;96300.31;;;4.50;100.00
3102;BME280;1561;42.666;23.392;2022-12-18T06:11:35;96307.06;;;4.49;100.00
3102;BME280;1561;42.666;23.392;2022-12-18T06:14:04;96319.19;;;4.41;100.00
3102;BME280;1561;42.666;23.392;2022-12-18T06:16:40;96321.91;;;4.37;100.00
3102;BME280;1561;42.666;23.392;2022-12-18T06:19:14;96323.78;;;4.32;100.00
3102;BME280;1561;42.666;23.392;2022-12-18T06:21:43;96219.81;;;3.76;100.00
3102;BME280;1561;42.666;23.392;2022-12-18T06:24:10;96329.28;;;4.41;100.00
3102;BME280;1561;42.666;23.392;2022-12-18T06:26:39;96220.38;;;3.61;100.00
3102;BME280;1561;42.666;23.392;2022-12-18T06:29:08;96338.72;;;4.38;100.00
3102;BME280;1561;42.666;23.392;2022-12-18T06:31:39;96337.72;;;4.42;100.00
3102;BME280;1561;42.666;23.392;2022-12-18T06:34:09;96335.31;;;4.39;100.00
3102;BME280;1561;42.666;23.392;2022-12-18T06:36:36;96350.38;;;4.42;100.00
3102;BME280;1561;42.666;23.392;2022-12-18T06:52:59;96347.31;;;4.55;100.00
3102;BME280;1561;42.666;23.392;2022-12-18T06:55:26;96347.78;;;4.43;100.00
3102;BME280;1561;42.666;23.392;2022-12-18T06:57:57;96361.03;;;4.50;100.00
3102;BME280;1561;42.666;23.392;2022-12-18T07:00:28;96347.94;;;4.39;100.00
3102;BME280;1561;42.666;23.392;2022-12-18T07:03:02;96380.94;;;4.57;100.00
3102;BME280;1561;42.666;23.392;2022-12-18T07:05:46;96302.84;;;4.07;100.00
3102;BME280;1561;42.666;23.392;2022-12-18T07:08:34;96239.03;;;3.80;100.00
3102;BME280;1561;42.666;23.392;2022-12-18T07:11:03;96316.31;;;4.29;100.00
3102;BME280;1561;42.666;23.392;2022-12-18T07:13:41;96382.59;;;4.58;100.00
3102;BME280;1561;42.666;23.392;2022-12-18T07:16:11;96382.53;;;4.60;100.00
3102;BME280;1561;42.666;23.392;2022-12-18T07:18:48;96383.75;;;4.71;100.00
3102;BME280;1561;42.666;23.392;2022-12-18T07:21:19;96276.50;;;4.12;100.00
3102;BME280;1561;42.666;23.392;2022-12-18T07:23:52;96388.03;;;4.71;100.00
3102;BME280;1561;42.666;23.392;2022-12-18T07:26:20;96389.94;;;4.86;100.00
3102;BME280;1561;42.666;23.392;2022-12-18T07:28:50;96375.06;;;4.78;100.00
3102;BME280;1561;42.666;23.392;2022-12-18T07:31:20;96392.53;;;4.84;100.00
3102;BME280;1561;42.666;23.392;2022-12-18T07:33:50;96399.69;;;4.95;100.00
3102;BME280;1561;42.666;23.392;2022-12-18T07:36:25;96379.59;;;4.70;100.00
3102;BME280;1561;42.666;23.392;2022-12-18T07:38:53;96275.97;;;4.04;100.00
3102;BME280;1561;42.666;23.392;2022-12-18T07:41:22;96408.34;;;4.89;100.00
3102;BME280;1561;42.666;23.392;2022-12-18T07:43:50;96407.84;;;4.60;100.00
3102;BME280;1561;42.666;23.392;2022-12-18T07:46:21;96375.16;;;4.55;100.00
3102;BME280;1561;42.666;23.392;2022-12-18T07:48:51;96409.44;;;4.62;100.00
3102;BME280;1561;42.666;23.392;2022-12-18T07:51:19;96409.72;;;4.55;100.00
3102;BME280;1561;42.666;23.392;2022-12-18T07:53:49;96407.84;;;4.60;100.00
3102;BME280;1561;42.666;23.392;2022-12-18T07:56:17;96430.66;;;4.58;100.00
3102;BME280;1561;42.666;23.392;2022-12-18T07:58:47;96410.06;;;4.67;100.00
3102;BME280;1561;42.666;23.392;2022-12-18T08:01:14;96422.75;;;4.89;100.00
3102;BME280;1561;42.666;23.392;2022-12-18T08:03:42;96439.44;;;4.50;100.00
3102;BME280;1561;42.666;23.392;2022-12-18T08:06:15;96426.19;;;4.43;100.00
3102;BME280;1561;42.666;23.392;2022-12-18T08:08:44;96445.41;;;4.49;100.00
3102;BME280;1561;42.666;23.392;2022-12-18T08:11:14;96448.09;;;4.44;100.00
3102;BME280;1561;42.666;23.392;2022-12-18T08:13:46;96459.69;;;4.50;100.00
3102;BME280;1561;42.666;23.392;2022-12-18T08:16:13;96400.25;;;3.94;100.00
3102;BME280;1561;42.666;23.392;2022-12-18T08:18:43;96435.72;;;4.37;100.00
3102;BME280;1561;42.666;23.392;2022-12-18T08:21:24;96475.16;;;4.42;100.00
3102;BME280;1561;42.666;23.392;2022-12-18T08:23:59;96460.84;;;4.41;100.00
3102;BME280;1561;42.666;23.392;2022-12-18T08:26:30;96465.09;;;4.41;100.00
3102;BME280;1561;42.666;23.392;2022-12-18T08:29:10;96465.56;;;4.50;100.00
3102;BME280;1561;42.666;23.392;2022-12-18T08:31:48;96470.53;;;4.30;100.00
3102;BME280;1561;42.666;23.392;2022-12-18T08:34:17;96500.28;;;4.47;100.00
3102;BME280;1561;42.666;23.392;2022-12-18T08:36:54;96479.94;;;4.50;100.00
3102;BME280;1561;42.666;23.392;2022-12-18T08:39:31;96464.44;;;4.36;100.00
3102;BME280;1561;42.666;23.392;2022-12-18T08:42:05;96477.34;;;4.51;100.00
3102;BME280;1561;42.666;23.392;2022-12-18T08:44:51;96333.31;;;3.81;100.00
3102;BME280;1561;42.666;23.392;2022-12-18T08:47:20;96462.16;;;4.51;100.00
3102;BME280;1561;42.666;23.392;2022-12-18T08:49:47;96485.66;;;4.76;100.00
3102;BME280;1561;42.666;23.392;2022-12-18T08:52:15;96490.44;;;4.84;100.00
3102;BME280;1561;42.666;23.392;2022-12-18T09:01:28;96481.31;;;4.57;100.00
3102;BME280;1561;42.666;23.392;2022-12-18T09:03:57;96444.41;;;4.53;100.00
3102;BME280;1561;42.666;23.392;2022-12-18T09:06:24;96357.78;;;3.80;100.00
3102;BME280;1561;42.666;23.392;2022-12-18T09:12:28;96472.78;;;4.82;100.00
3102;BME280;1561;42.666;23.392;2022-12-18T09:14:55;96469.34;;;4.83;100.00
3102;BME280;1561;42.666;23.392;2022-12-18T09:17:33;96471.34;;;4.54;100.00
3102;BME280;1561;42.666;23.392;2022-12-18T09:20:01;96479.13;;;4.71;100.00
3102;BME280;1561;42.666;23.392;2022-12-18T09:22:28;96456.63;;;4.63;100.00
3102;BME280;1561;42.666;23.392;2022-12-18T09:24:59;96468.53;;;4.61;100.00
3102;BME280;1561;42.666;23.392;2022-12-18T09:27:28;96478.19;;;4.73;100.00
3102;BME280;1561;42.666;23.392;2022-12-18T09:29:58;96471.81;;;4.63;100.00
3102;BME280;1561;42.666;23.392;2022-12-18T09:32:28;96470.06;;;4.87;100.00
3102;BME280;1561;42.666;23.392;2022-12-18T09:34:57;96477.00;;;4.82;100.00
3102;BME280;1561;42.666;23.392;2022-12-18T09:37:27;96440.97;;;4.54;100.00
3102;BME280;1561;42.666;23.392;2022-12-18T09:40:02;96461.53;;;4.68;100.00
3102;BME280;1561;42.666;23.392;2022-12-18T09:42:30;96494.66;;;4.83;100.00
3102;BME280;1561;42.666;23.392;2022-12-18T09:44:59;96472.53;;;4.88;100.00
3102;BME280;1561;42.666;23.392;2022-12-18T09:47:35;96498.63;;;5.12;100.00
3102;BME280;1561;42.666;23.392;2022-12-18T09:50:17;96495.31;;;4.88;100.00
3102;BME280;1561;42.666;23.392;2022-12-18T09:52:54;96485.53;;;5.01;100.00
3102;BME280;1561;42.666;23.392;2022-12-18T09:55:25;96474.66;;;4.99;100.00
3102;BME280;1561;42.666;23.392;2022-12-18T09:57:58;96473.53;;;5.06;100.00
3102;BME280;1561;42.666;23.392;2022-12-18T10:00:27;96487.44;;;5.17;100.00
3102;BME280;1561;42.666;23.392;2022-12-18T10:03:01;96466.84;;;5.03;100.00
3102;BME280;1561;42.666;23.392;2022-12-18T10:05:39;96489.22;;;5.14;100.00
3102;BME280;1561;42.666;23.392;2022-12-18T10:08:34;96483.31;;;5.15;100.00
3102;BME280;1561;42.666;23.392;2022-12-18T10:11:38;96489.44;;;5.29;100.00
3102;BME280;1561;42.666;23.392;2022-12-18T10:14:43;96488.97;;;5.21;100.00
3102;BME280;1561;42.666;23.392;2022-12-18T10:17:38;96477.69;;;5.28;100.00
3102;BME280;1561;42.666;23.392;2022-12-18T10:20:17;96456.56;;;5.08;100.00
3102;BME280;1561;42.666;23.392;2022-12-18T10:22:53;96486.75;;;5.34;100.00
3102;BME280;1561;42.666;23.392;2022-12-18T10:25:48;96451.06;;;5.18;100.00
3102;BME280;1561;42.666;23.392;2022-12-18T10:31:39;96482.84;;;5.25;100.00
3102;BME280;1561;42.666;23.392;2022-12-18T10:37:30;96485.47;;;5.24;100.00
3102;BME280;1561;42.666;23.392;2022-12-18T10:40:47;96476.03;;;5.27;100.00
3102;BME280;1561;42.666;23.392;2022-12-18T10:43:15;96474.84;;;5.36;100.00
3102;BME280;1561;42.666;23.392;2022-12-18T10:45:42;96464.03;;;5.52;100.00
3102;BME280;1561;42.666;23.392;2022-12-18T10:48:51;96428.59;;;5.31;100.00
3102;BME280;1561;42.666;23.392;2022-12-18T10:51:43;96473.88;;;5.38;100.00
3102;BME280;1561;42.666;23.392;2022-12-18T10:54:18;96472.75;;;5.45;100.00
3102;BME280;1561;42.666;23.392;2022-12-18T10:56:51;96475.31;;;5.65;100.00
3102;BME280;1561;42.666;23.392;2022-12-18T10:59:19;96483.84;;;5.43;100.00
3102;BME280;1561;42.666;23.392;2022-12-18T11:01:56;96465.53;;;5.36;100.00
3102;BME280;1561;42.666;23.392;2022-12-18T11:04:31;96473.06;;;5.58;100.00
3102;BME280;1561;42.666;23.392;2022-12-18T11:07:01;96479.53;;;5.45;100.00
3102;BME280;1561;42.666;23.392;2022-12-18T11:09:31;96464.63;;;5.37;100.00
3102;BME280;1561;42.666;23.392;2022-12-18T11:12:15;96466.75;;;5.48;100.00
3102;BME280;1561;42.666;23.392;2022-12-18T11:14:48;96473.00;;;5.59;100.00
3102;BME280;1561;42.666;23.392;2022-12-18T11:17:22;96470.53;;;5.58;100.00
3102;BME280;1561;42.666;23.392;2022-12-18T11:19:53;96479.28;;;5.71;100.00
3102;BME280;1561;42.666;23.392;2022-12-18T11:22:36;96287.97;;;4.42;100.00
3102;BME280;1561;42.666;23.392;2022-12-18T11:25:20;96487.59;;;5.54;100.00
3102;BME280;1561;42.666;23.392;2022-12-18T11:28:25;96487.31;;;5.60;100.00
3102;BME280;1561;42.666;23.392;2022-12-18T11:31:22;96486.19;;;5.67;100.00
3102;BME280;1561;42.666;23.392;2022-12-18T11:34:30;96486.47;;;5.81;100.00
3102;BME280;1561;42.666;23.392;2022-12-18T11:37:03;96487.03;;;5.88;100.00
3102;BME280;1561;42.666;23.392;2022-12-18T11:39:46;96477.66;;;5.70;100.00
3102;BME280;1561;42.666;23.392;2022-12-18T11:51:34;96482.09;;;5.65;100.00
3102;BME280;1561;42.666;23.392;2022-12-18T11:54:11;96457.81;;;5.39;100.00
3102;BME280;1561;42.666;23.392;2022-12-18T11:56:51;96484.53;;;5.46;100.00
3102;BME280;1561;42.666;23.392;2022-12-18T11:59:38;96484.09;;;5.57;100.00
3102;BME280;1561;42.666;23.392;2022-12-18T12:05:44;96482.69;;;5.50;100.00
3102;BME280;1561;42.666;23.392;2022-12-18T12:08:27;96471.25;;;5.61;100.00
3102;BME280;1561;42.666;23.392;2022-12-18T12:11:06;96496.13;;;5.93;100.00
3102;BME280;1561;42.666;23.392;2022-12-18T12:13:45;96484.94;;;5.57;100.00
3102;BME280;1561;42.666;23.392;2022-12-18T12:16:20;96481.19;;;5.46;100.00
3102;BME280;1561;42.666;23.392;2022-12-18T12:19:12;96485.44;;;5.45;100.00
3102;BME280;1561;42.666;23.392;2022-12-18T12:21:52;96482.06;;;5.45;100.00
3102;BME280;1561;42.666;23.392;2022-12-18T12:24:30;96491.97;;;5.51;100.00
3102;BME280;1561;42.666;23.392;2022-12-18T12:27:10;96468.44;;;5.47;100.00
3102;BME280;1561;42.666;23.392;2022-12-18T12:29:48;96482.34;;;5.59;100.00
3102;BME280;1561;42.666;23.392;2022-12-18T12:32:25;96498.44;;;5.78;100.00
3102;BME280;1561;42.666;23.392;2022-12-18T12:35:12;96494.91;;;5.82;100.00
3102;BME280;1561;42.666;23.392;2022-12-18T12:37:51;96483.94;;;5.61;100.00
3102;BME280;1561;42.666;23.392;2022-12-18T12:40:27;96488.63;;;5.70;100.00
3102;BME280;1561;42.666;23.392;2022-12-18T12:42:58;96489.44;;;5.71;100.00
3102;BME280;1561;42.666;23.392;2022-12-18T12:45:45;96469.34;;;5.66;100.00
3102;BME280;1561;42.666;23.392;2022-12-18T12:48:19;96494.44;;;5.72;100.00
3102;BME280;1561;42.666;23.392;2022-12-18T12:50:54;96493.19;;;5.82;100.00
3102;BME280;1561;42.666;23.392;2022-12-18T12:53:30;96500.22;;;5.96;100.00
3102;BME280;1561;42.666;23.392;2022-12-18T12:56:06;96504.75;;;5.89;100.00
3102;BME280;1561;42.666;23.392;2022-12-18T12:58:43;96507.22;;;5.91;100.00
3102;BME280;1561;42.666;23.392;2022-12-18T13:01:23;96515.78;;;5.67;100.00
3102;BME280;1561;42.666;23.392;2022-12-18T13:03:58;96505.72;;;5.65;100.00
3102;BME280;1561;42.666;23.392;2022-12-18T13:06:35;96514.59;;;5.75;100.00
3102;BME280;1561;42.666;23.392;2022-12-18T13:09:06;96517.53;;;5.86;100.00
3102;BME280;1561;42.666;23.392;2022-12-18T13:11:44;96516.56;;;5.89;100.00
3102;BME280;1561;42.666;23.392;2022-12-18T13:14:32;96398.63;;;5.00;100.00
3102;BME280;1561;42.666;23.392;2022-12-18T13:17:33;96516.41;;;5.72;100.00
3102;BME280;1561;42.666;23.392;2022-12-18T13:20:12;96496.66;;;5.60;100.00
3102;BME280;1561;42.666;23.392;2022-12-18T13:22:43;96443.31;;;5.01;100.00
3102;BME280;1561;42.666;23.392;2022-12-18T13:25:28;96542.09;;;5.64;100.00
3102;BME280;1561;42.666;23.392;2022-12-18T13:28:07;96539.28;;;5.50;100.00
3102;BME280;1561;42.666;23.392;2022-12-18T13:30:51;96535.06;;;5.51;100.00
3102;BME280;1561;42.666;23.392;2022-12-18T13:33:41;96539.81;;;5.58;100.00
3102;BME280;1561;42.666;23.392;2022-12-18T13:36:17;96538.34;;;5.53;100.00
3102;BME280;1561;42.666;23.392;2022-12-18T13:41:54;96539.75;;;5.60;100.00
3102;BME280;1561;42.666;23.392;2022-12-18T13:45:41;96549.06;;;5.59;100.00
3102;BME280;1561;42.666;23.392;2022-12-18T13:48:22;96551.22;;;5.68;100.00
3102;BME280;1561;42.666;23.392;2022-12-18T13:50:55;96505.06;;;5.19;100.00
3102;BME280;1561;42.666;23.392;2022-12-18T13:53:26;96559.56;;;5.50;100.00
3102;BME280;1561;42.666;23.392;2022-12-18T13:55:54;96566.16;;;5.54;100.00
3102;BME280;1561;42.666;23.392;2022-12-18T13:58:21;96423.09;;;4.80;100.00
3102;BME280;1561;42.666;23.392;2022-12-18T14:00:51;96560.72;;;5.63;100.00
3102;BME280;1561;42.666;23.392;2022-12-18T14:03:21;96544.38;;;5.70;100.00
3102;BME280;1561;42.666;23.392;2022-12-18T14:05:54;96577.56;;;5.64;100.00
3102;BME280;1561;42.666;23.392;2022-12-18T14:08:33;96533.84;;;5.59;100.00
3102;BME280;1561;42.666;23.392;2022-12-18T14:11:04;96567.38;;;5.66;100.00
3102;BME280;1561;42.666;23.392;2022-12-18T14:13:35;96572.19;;;5.93;100.00
3102;BME280;1561;42.666;23.392;2022-12-18T14:16:06;96561.75;;;5.79;100.00
3102;BME280;1561;42.666;23.392;2022-12-18T14:18:43;96578.88;;;5.74;100.00
3102;BME280;1561;42.666;23.392;2022-12-18T14:21:21;96583.06;;;5.75;100.00
3102;BME280;1561;42.666;23.392;2022-12-18T14:23:49;96577.25;;;5.93;100.00
3102;BME280;1561;42.666;23.392;2022-12-18T14:26:23;96582.78;;;5.83;100.00
3102;BME280;1561;42.666;23.392;2022-12-18T14:28:53;96578.28;;;5.46;100.00
3102;BME280;1561;42.666;23.392;2022-12-18T14:31:26;96570.16;;;5.38;100.00
3102;BME280;1561;42.666;23.392;2022-12-18T14:33:55;96583.72;;;5.37;100.00
3102;BME280;1561;42.666;23.392;2022-12-18T14:36:24;96591.16;;;5.42;100.00
3102;BME280;1561;42.666;23.392;2022-12-18T14:38:54;96588.69;;;5.40;100.00
3102;BME280;1561;42.666;23.392;2022-12-18T14:41:22;96566.88;;;5.36;100.00
3102;BME280;1561;42.666;23.392;2022-12-18T14:43:53;96437.56;;;4.55;100.00
3102;BME280;1561;42.666;23.392;2022-12-18T14:46:34;96586.25;;;5.80;100.00
3102;BME280;1561;42.666;23.392;2022-12-18T14:49:14;96589.88;;;5.73;100.00
3102;BME280;1561;42.666;23.392;2022-12-18T14:51:49;96586.59;;;5.50;100.00
3102;BME280;1561;42.666;23.392;2022-12-18T14:54:19;96581.97;;;5.39;100.00